Time;durP1;ratioP1;P1;durP2;ratioP2;P2;SDS_P1;SDS_P2;PMS_P1;PMS_P2;Temp;Humidity;BMP_temperature;BMP_pressure;BME280_temperature;BME280_humidity;BME280_pressure;Samples;Min_cycle;Max_cycle;Signal;HPM_P1;HPM_P2
2022/02/24 00:00:31;;;;;;;23.50;15.70;;;;;;;6.04;65.46;99457.13;5014378;28;20030;-64
2022/02/24 00:02:56;;;;;;;21.52;15.63;;;;;;;6.05;66.34;99453.59;5037367;28;20068;-64
2022/02/24 00:05:22;;;;;;;22.92;16.33;;;;;;;5.87;66.81;99426.31;5024588;28;20061;-63
2022/02/24 00:07:47;;;;;;;22.60;15.85;;;;;;;6.03;67.43;99452.06;5004905;28;20374;-63
2022/02/24 00:10:14;;;;;;;21.80;15.35;;;;;;;6.05;65.84;99452.78;5044569;28;20025;-63
2022/02/24 00:12:41;;;;;;;22.90;15.90;;;;;;;5.95;66.83;99444.72;5036296;28;20025;-62
2022/02/24 00:15:07;;;;;;;23.48;15.18;;;;;;;6.06;66.14;99450.13;5034091;28;20024;-63
2022/02/24 00:17:33;;;;;;;21.75;15.18;;;;;;;5.99;66.95;99451.41;5042779;28;20027;-62
2022/02/24 00:19:59;;;;;;;24.15;15.55;;;;;;;5.93;67.71;99446.59;5024117;28;20033;-63
2022/02/24 00:22:25;;;;;;;22.50;14.82;;;;;;;5.55;68.36;99391.25;5010298;28;20709;-63
2022/02/24 00:24:51;;;;;;;23.45;15.20;;;;;;;5.80;68.50;99436.19;5040696;28;20037;-63
2022/02/24 00:27:16;;;;;;;21.13;15.05;;;;;;;5.92;68.14;99442.38;5038485;28;20082;-62
2022/02/24 00:29:42;;;;;;;20.83;13.63;;;;;;;6.03;68.05;99446.91;5034679;28;20408;-63
2022/02/24 00:32:07;;;;;;;20.83;15.45;;;;;;;5.78;67.93;99435.44;5041696;28;20025;-63
2022/02/24 00:34:33;;;;;;;21.00;14.27;;;;;;;5.93;67.70;99437.09;5023877;28;20128;-63
2022/02/24 00:37:00;;;;;;;20.75;15.13;;;;;;;5.63;67.87;99388.19;5034497;28;20034;-63
2022/02/24 00:39:26;;;;;;;20.23;15.13;;;;;;;5.99;67.87;99442.81;4991148;28;20025;-63
2022/02/24 00:41:51;;;;;;;20.35;14.80;;;;;;;5.97;68.68;99432.63;5039123;28;20032;-62
2022/02/24 00:44:16;;;;;;;19.25;13.48;;;;;;;5.75;68.73;99386.63;5040822;28;20036;-63
2022/02/24 00:46:42;;;;;;;20.08;14.60;;;;;;;5.97;68.65;99435.19;5044844;28;20028;-63
2022/02/24 00:49:08;;;;;;;21.88;14.02;;;;;;;5.90;69.64;99437.28;5044703;28;20033;-63
2022/02/24 00:51:34;;;;;;;22.15;14.10;;;;;;;5.90;70.43;99436.47;5051007;28;20021;-63
2022/02/24 00:53:59;;;;;;;17.75;13.55;;;;;;;5.61;70.78;99391.81;5015777;28;20041;-63
2022/02/24 00:56:25;;;;;;;18.50;13.82;;;;;;;5.97;70.52;99430.84;5043211;28;20079;-63
2022/02/24 00:58:51;;;;;;;19.98;13.85;;;;;;;5.95;69.67;99424.06;5043994;28;20036;-63
2022/02/24 01:01:16;;;;;;;18.35;13.85;;;;;;;5.99;70.19;99423.03;5042352;28;20033;-62
2022/02/24 01:03:41;;;;;;;17.35;12.40;;;;;;;5.77;65.87;99384.78;5044572;28;20025;-63
2022/02/24 01:06:07;;;;;;;17.02;12.20;;;;;;;6.07;64.80;99413.03;5043180;28;20028;-63
2022/02/24 01:08:32;;;;;;;20.58;11.98;;;;;;;6.16;63.63;99424.53;5044932;28;20406;-63
2022/02/24 01:10:57;;;;;;;19.95;12.40;;;;;;;6.25;62.26;99429.13;5029470;28;20037;-63
2022/02/24 01:13:23;;;;;;;19.75;12.23;;;;;;;5.91;61.86;99369.25;5039356;28;20040;-63
2022/02/24 01:15:48;;;;;;;21.00;12.50;;;;;;;6.28;62.08;99415.16;5042773;28;20738;-63
2022/02/24 01:18:14;;;;;;;18.60;11.25;;;;;;;6.22;62.68;99420.72;5025512;28;20025;-63
2022/02/24 01:20:39;;;;;;;15.68;11.18;;;;;;;6.23;62.33;99419.81;5045328;28;20025;-63
2022/02/24 01:23:05;;;;;;;17.83;12.15;;;;;;;5.89;62.59;99370.25;5043695;28;20753;-62
2022/02/24 01:25:32;;;;;;;18.20;12.15;;;;;;;5.96;63.47;99387.06;5029672;28;20040;-62
2022/02/24 01:27:58;;;;;;;18.42;11.80;;;;;;;6.08;62.80;99409.53;5044222;28;20028;-63
2022/02/24 01:30:24;;;;;;;16.98;11.90;;;;;;;6.23;62.06;99407.72;5025499;28;20081;-62
2022/02/24 01:32:49;;;;;;;17.27;11.45;;;;;;;6.12;61.30;99361.94;5043903;28;20075;-62
2022/02/24 01:35:16;;;;;;;18.58;12.43;;;;;;;6.32;63.19;99396.00;5042541;28;20376;-63
2022/02/24 01:37:42;;;;;;;17.85;12.50;;;;;;;6.13;65.22;99402.31;5045328;28;20075;-63
2022/02/24 01:40:08;;;;;;;18.92;12.88;;;;;;;5.72;65.83;99341.19;5027471;28;20120;-63
2022/02/24 01:42:34;;;;;;;20.58;13.07;;;;;;;6.02;66.12;99394.41;5036983;28;20033;-62
2022/02/24 01:44:59;;;;;;;20.27;13.07;;;;;;;6.02;66.43;99391.00;5038302;28;20039;-63
2022/02/24 01:47:25;;;;;;;18.13;12.68;;;;;;;5.98;65.72;99385.22;5042180;28;20031;-62
2022/02/24 01:49:51;;;;;;;18.38;12.23;;;;;;;5.94;66.74;99381.13;5035391;28;20032;-63
2022/02/24 01:52:16;;;;;;;18.80;12.40;;;;;;;5.88;66.87;99371.22;5041870;28;20156;-63
2022/02/24 01:54:42;;;;;;;18.58;12.68;;;;;;;5.87;67.76;99374.69;5053595;28;20026;-63
2022/02/24 01:57:08;;;;;;;18.42;12.75;;;;;;;5.88;67.15;99373.78;5027456;28;21010;-63
2022/02/24 01:59:36;;;;;;;18.27;12.50;;;;;;;5.85;66.91;99363.66;5043878;28;20055;-63
2022/02/24 02:02:01;;;;;;;17.75;12.90;;;;;;;5.88;68.00;99372.03;5037234;28;20496;-63
2022/02/24 02:04:27;;;;;;;16.35;12.00;;;;;;;5.92;68.18;99360.56;5043113;28;20056;-63
2022/02/24 02:06:56;;;;;;;18.50;13.07;;;;;;;5.90;67.61;99359.03;5035826;28;20108;-63
2022/02/24 02:09:21;;;;;;;21.35;13.32;;;;;;;5.99;67.88;99362.78;5035803;28;20557;-63
2022/02/24 02:11:47;;;;;;;17.60;12.75;;;;;;;5.90;67.61;99346.13;5043825;28;20052;-62
2022/02/24 02:14:13;;;;;;;17.15;11.63;;;;;;;6.02;67.36;99347.13;5029669;28;20031;-63
2022/02/24 02:16:46;;;;;;;17.75;12.00;;;;;;;5.96;67.50;99354.31;5020476;28;20021;-62
2022/02/24 02:19:11;;;;;;;18.55;12.95;;;;;;;6.00;67.45;99352.38;5024093;28;20039;-63
2022/02/24 02:21:37;;;;;;;17.92;13.00;;;;;;;6.03;68.40;99343.63;5025138;28;20017;-63
2022/02/24 02:24:03;;;;;;;20.88;11.98;;;;;;;6.08;68.36;99351.91;5040902;28;20476;-63
2022/02/24 02:26:31;;;;;;;17.85;12.43;;;;;;;6.09;66.99;99358.72;5032255;28;20103;-63
2022/02/24 02:28:57;;;;;;;17.17;12.10;;;;;;;6.03;67.58;99351.38;5032222;28;20047;-62
2022/02/24 02:31:23;;;;;;;17.52;12.48;;;;;;;6.14;67.16;99356.66;5039851;28;20096;-63
2022/02/24 02:33:48;;;;;;;17.67;12.63;;;;;;;5.89;67.37;99324.63;5031272;28;20025;-62
2022/02/24 02:36:14;;;;;;;18.13;12.45;;;;;;;6.15;68.13;99366.91;5038304;28;20094;-62
2022/02/24 02:38:39;;;;;;;17.58;12.50;;;;;;;6.14;67.56;99359.25;5053604;28;20033;-63
2022/02/24 02:41:05;;;;;;;15.95;12.20;;;;;;;6.18;66.67;99363.28;5044901;28;20394;-63
2022/02/24 02:43:30;;;;;;;18.02;12.30;;;;;;;6.09;67.35;99361.28;5041244;28;20037;-63
2022/02/24 02:45:56;;;;;;;18.50;11.82;;;;;;;6.15;66.98;99363.47;5031449;28;20505;-63
2022/02/24 02:48:21;;;;;;;18.55;12.38;;;;;;;6.22;66.35;99351.00;5039817;28;20032;-62
2022/02/24 02:50:46;;;;;;;17.35;12.88;;;;;;;5.91;67.07;99315.06;5041938;28;20029;-63
2022/02/24 02:53:12;;;;;;;16.92;12.40;;;;;;;6.03;67.77;99348.78;5041480;28;20037;-63
2022/02/24 02:55:37;;;;;;;15.82;12.10;;;;;;;6.02;67.27;99353.09;5042432;28;20158;-63
2022/02/24 02:58:03;;;;;;;15.77;12.15;;;;;;;6.07;67.33;99357.97;5037038;28;20709;-63
2022/02/24 03:00:28;;;;;;;17.27;13.38;;;;;;;5.96;67.90;99356.09;5026506;28;20029;-63
2022/02/24 03:02:54;;;;;;;16.27;12.40;;;;;;;5.96;68.38;99361.25;5043192;28;20028;-63
2022/02/24 03:05:20;;;;;;;16.02;11.65;;;;;;;5.78;66.93;99351.09;5034573;28;20041;-63
2022/02/24 03:07:46;;;;;;;17.75;12.00;;;;;;;5.64;66.99;99347.75;5044600;28;20024;-62
2022/02/24 03:10:11;;;;;;;16.70;11.57;;;;;;;5.26;66.87;99287.28;5041908;28;20025;-63
2022/02/24 03:12:37;;;;;;;16.83;11.60;;;;;;;5.67;67.68;99347.56;5060243;28;20100;-62
2022/02/24 03:15:09;;;;;;;18.10;11.65;;;;;;;5.74;68.33;99359.16;5038666;28;20087;-64
2022/02/24 03:17:35;;;;;;;17.85;11.60;;;;;;;5.71;68.56;99355.03;5033531;28;20036;-63
2022/02/24 03:20:01;;;;;;;16.77;11.43;;;;;;;5.78;68.89;99347.72;5041133;28;20021;-63
2022/02/24 03:22:26;;;;;;;17.10;11.77;;;;;;;5.44;68.92;99295.66;5021829;28;20043;-63
2022/02/24 03:24:51;;;;;;;17.73;12.60;;;;;;;5.87;70.01;99346.31;5041022;28;20491;-62
2022/02/24 03:27:17;;;;;;;17.77;12.38;;;;;;;5.83;70.92;99347.44;5032220;28;20112;-63
2022/02/24 03:29:42;;;;;;;16.35;11.65;;;;;;;5.85;70.79;99332.69;5042774;28;20032;-62
2022/02/24 03:32:07;;;;;;;18.08;12.40;;;;;;;5.58;70.89;99293.03;5030607;28;20025;-63
2022/02/24 03:34:33;;;;;;;16.75;12.23;;;;;;;5.52;71.39;99277.09;5044015;28;20710;-63
2022/02/24 03:36:59;;;;;;;18.88;12.48;;;;;;;5.75;70.94;99337.59;5034839;28;20474;-62
2022/02/24 03:39:24;;;;;;;16.92;12.57;;;;;;;5.76;70.94;99336.66;5041692;28;20025;-63
2022/02/24 03:41:51;;;;;;;17.02;12.13;;;;;;;5.64;71.18;99335.69;5042143;28;20033;-63
2022/02/24 03:44:17;;;;;;;16.52;11.98;;;;;;;5.73;71.34;99336.84;5036565;28;20114;-63
2022/02/24 03:46:43;;;;;;;16.25;11.75;;;;;;;5.75;71.64;99335.00;5024963;28;20037;-63
2022/02/24 03:49:08;;;;;;;15.82;11.70;;;;;;;5.74;71.61;99333.34;5026228;28;20391;-63
2022/02/24 03:51:34;;;;;;;20.52;12.50;;;;;;;5.72;71.70;99333.44;5036149;28;20131;-63
2022/02/24 03:53:59;;;;;;;15.70;12.32;;;;;;;5.77;72.25;99333.16;5037595;28;20503;-63
2022/02/24 03:56:24;;;;;;;17.92;11.88;;;;;;;5.72;71.70;99341.19;5041449;28;20036;-62
2022/02/24 03:58:50;;;;;;;16.15;12.27;;;;;;;5.70;72.57;99331.91;5022942;28;20454;-63
2022/02/24 04:01:15;;;;;;;18.65;11.98;;;;;;;5.34;71.87;99274.75;5039353;28;20025;-63
2022/02/24 04:03:41;;;;;;;15.77;11.85;;;;;;;5.57;72.56;99331.81;5005274;28;20044;-63
2022/02/24 04:06:07;;;;;;;17.02;11.85;;;;;;;5.55;71.96;99319.03;5041413;28;20093;-63
2022/02/24 04:08:32;;;;;;;16.80;12.10;;;;;;;5.54;73.04;99330.25;5033557;28;20053;-63
2022/02/24 04:10:58;;;;;;;17.90;12.50;;;;;;;5.50;73.59;99333.94;5040808;28;20032;-63
2022/02/24 04:13:23;;;;;;;17.25;12.75;;;;;;;4.99;73.98;99272.59;5041947;28;20017;-63
2022/02/24 04:15:48;;;;;;;18.45;12.77;;;;;;;5.05;73.78;99275.72;5041113;28;20047;-63
2022/02/24 04:18:14;;;;;;;17.52;12.27;;;;;;;5.26;74.20;99325.16;5042009;28;20063;-64
2022/02/24 04:20:40;;;;;;;18.05;12.73;;;;;;;5.27;74.95;99319.88;5037183;28;20036;-63
2022/02/24 04:23:05;;;;;;;16.95;12.63;;;;;;;5.33;74.42;99318.66;5043724;28;20044;-63
2022/02/24 04:25:31;;;;;;;17.58;12.52;;;;;;;5.29;73.42;99312.06;5029117;28;20036;-63
2022/02/24 04:27:56;;;;;;;17.00;12.30;;;;;;;5.22;72.92;99311.63;5044871;28;20029;-62
2022/02/24 04:30:21;;;;;;;17.15;11.57;;;;;;;5.12;71.85;99282.97;5038685;28;20040;-63
2022/02/24 04:32:47;;;;;;;15.88;11.65;;;;;;;5.44;71.54;99324.03;5040265;28;20024;-63
2022/02/24 04:35:14;;;;;;;16.58;11.80;;;;;;;5.44;71.77;99328.31;5034074;28;20345;-62
2022/02/24 04:37:39;;;;;;;16.90;11.80;;;;;;;5.48;71.50;99325.47;5025651;28;20132;-63
2022/02/24 04:40:06;;;;;;;16.50;12.45;;;;;;;5.34;71.41;99318.59;5046797;28;20127;-63
2022/02/24 04:42:32;;;;;;;21.05;11.77;;;;;;;5.38;71.09;99332.97;5048253;28;20155;-63
2022/02/24 04:45:00;;;;;;;17.52;12.05;;;;;;;5.05;72.54;99322.94;5027896;28;20948;-63
2022/02/24 04:47:26;;;;;;;20.63;12.40;;;;;;;5.07;72.45;99315.94;5043208;28;20120;-62
2022/02/24 04:49:52;;;;;;;19.02;11.85;;;;;;;5.13;72.31;99313.00;5041934;28;20655;-63
2022/02/24 04:52:17;;;;;;;20.25;12.02;;;;;;;5.10;72.66;99305.44;5032789;28;20034;-63
2022/02/24 04:54:43;;;;;;;19.98;12.60;;;;;;;5.10;72.09;99322.66;5053787;28;20352;-63
2022/02/24 04:57:08;;;;;;;26.50;12.43;;;;;;;5.09;71.75;99316.69;5045048;28;20037;-62
2022/02/24 04:59:34;;;;;;;23.27;13.13;;;;;;;5.08;71.75;99314.19;5042531;28;20021;-63
2022/02/24 05:01:59;;;;;;;27.38;12.13;;;;;;;4.80;71.20;99266.88;5025195;28;20080;-63
2022/02/24 05:04:25;;;;;;;21.40;13.40;;;;;;;5.14;71.02;99318.97;5042440;28;20029;-63
2022/02/24 05:06:50;;;;;;;22.40;13.05;;;;;;;5.01;70.99;99311.16;5034690;28;20369;-63
2022/02/24 05:09:16;;;;;;;22.90;13.02;;;;;;;4.79;71.29;99299.53;5039436;28;20029;-63
2022/02/24 05:11:41;;;;;;;25.35;14.00;;;;;;;4.12;71.27;99177.34;5036975;28;20036;-63
2022/02/24 05:14:07;;;;;;;24.67;13.05;;;;;;;4.88;71.78;99307.66;5044517;28;20021;-63
2022/02/24 05:16:32;;;;;;;26.67;13.18;;;;;;;4.69;71.33;99301.03;5036210;28;20030;-63
2022/02/24 05:18:58;;;;;;;28.50;13.45;;;;;;;4.60;70.83;99261.19;5042501;28;20463;-62
2022/02/24 05:21:23;;;;;;;26.75;13.10;;;;;;;4.78;71.75;99315.09;5025116;28;20037;-63
2022/02/24 05:23:50;;;;;;;25.75;13.75;;;;;;;4.88;71.13;99312.81;5021098;28;20034;-63
2022/02/24 05:26:16;;;;;;;20.20;12.98;;;;;;;4.56;70.33;99274.31;5034979;28;20420;-63
2022/02/24 05:28:42;;;;;;;29.13;14.40;;;;;;;4.58;71.76;99324.00;5044960;28;20040;-64
2022/02/24 05:31:07;;;;;;;27.40;14.25;;;;;;;4.67;71.50;99314.91;5036026;28;20033;-63
2022/02/24 05:33:32;;;;;;;24.17;14.48;;;;;;;4.66;71.70;99308.94;5038580;28;20125;-63
2022/02/24 05:35:58;;;;;;;27.70;14.25;;;;;;;4.63;71.25;99298.78;5040384;28;20049;-64
2022/02/24 05:38:23;;;;;;;26.98;14.60;;;;;;;4.73;72.40;99312.81;5029994;28;20094;-63
2022/02/24 05:40:49;;;;;;;26.10;15.35;;;;;;;4.73;71.22;99312.81;5046614;28;20017;-63
2022/02/24 05:43:15;;;;;;;24.90;14.35;;;;;;;4.74;71.76;99303.31;5045185;28;20726;-64
2022/02/24 05:45:42;;;;;;;22.80;14.35;;;;;;;4.72;71.44;99300.81;5024598;28;20764;-63
2022/02/24 05:48:08;;;;;;;24.15;14.43;;;;;;;4.70;71.87;99296.69;5026866;28;20048;-64
2022/02/24 05:50:34;;;;;;;24.67;15.38;;;;;;;4.74;71.60;99298.97;5055540;28;20431;-64
2022/02/24 05:53:02;;;;;;;29.08;15.32;;;;;;;4.40;71.51;99249.47;5043110;28;20048;-64
2022/02/24 05:55:31;;;;;;;24.65;15.88;;;;;;;4.72;71.33;99297.44;5036336;28;20017;-64
2022/02/24 05:57:57;;;;;;;22.65;15.20;;;;;;;4.65;72.24;99291.78;5034211;28;20025;-63
2022/02/24 06:00:23;;;;;;;24.38;14.25;;;;;;;4.24;71.51;99241.00;5043497;28;20120;-64
2022/02/24 06:02:49;;;;;;;26.00;15.82;;;;;;;4.50;71.98;99300.44;5037097;28;20013;-64
2022/02/24 06:05:15;;;;;;;25.05;16.02;;;;;;;4.39;71.83;99246.97;5042385;28;20044;-63
2022/02/24 06:07:42;;;;;;;26.67;15.60;;;;;;;4.45;71.08;99244.03;5034132;28;20038;-63
2022/02/24 06:10:09;;;;;;;25.92;15.43;;;;;;;4.65;71.93;99289.22;4999668;28;20040;-63
2022/02/24 06:12:34;;;;;;;24.67;15.93;;;;;;;4.65;72.11;99285.81;5024702;28;20013;-63
2022/02/24 06:14:59;;;;;;;21.95;15.63;;;;;;;4.58;72.56;99280.19;5044887;28;20711;-63
2022/02/24 06:17:25;;;;;;;23.70;15.43;;;;;;;4.52;72.46;99278.81;5045563;28;20033;-63
2022/02/24 06:19:50;;;;;;;25.30;15.75;;;;;;;4.35;72.49;99240.38;5035982;28;20087;-63
2022/02/24 06:22:16;;;;;;;23.13;16.10;;;;;;;4.61;72.29;99277.44;5041888;28;20025;-63
2022/02/24 06:24:41;;;;;;;23.55;16.13;;;;;;;4.58;72.41;99275.03;5023095;28;20029;-63
2022/02/24 06:27:07;;;;;;;28.98;15.85;;;;;;;4.58;72.56;99275.03;5029454;28;20079;-62
2022/02/24 06:29:32;;;;;;;23.13;14.70;;;;;;;4.61;73.37;99282.59;5033390;28;20112;-62
2022/02/24 06:31:57;;;;;;;21.38;15.23;;;;;;;4.57;74.70;99283.72;5024017;28;20028;-63
2022/02/24 06:34:23;;;;;;;23.95;15.30;;;;;;;4.64;73.39;99279.84;5042623;28;20033;-63
2022/02/24 06:36:48;;;;;;;27.98;15.98;;;;;;;4.67;73.46;99278.84;5043567;28;20032;-62
2022/02/24 06:39:15;;;;;;;31.08;15.18;;;;;;;4.67;73.57;99284.81;5044020;28;20036;-62
2022/02/24 06:41:40;;;;;;;22.25;14.65;;;;;;;4.40;73.50;99231.44;5043706;28;20460;-64
2022/02/24 06:44:06;;;;;;;22.83;15.32;;;;;;;4.63;73.80;99275.59;5044308;28;20021;-63
2022/02/24 06:46:31;;;;;;;21.30;14.48;;;;;;;4.66;75.88;99262.56;5022429;28;20029;-63
2022/02/24 06:48:56;;;;;;;19.73;13.88;;;;;;;4.74;77.64;99269.81;5034571;28;20078;-64
2022/02/24 06:51:22;;;;;;;23.10;14.57;;;;;;;4.69;78.18;99275.25;4986145;28;20025;-64
2022/02/24 06:53:47;;;;;;;21.00;14.25;;;;;;;4.70;78.82;99276.09;5043399;28;20074;-64
2022/02/24 06:56:13;;;;;;;22.80;14.60;;;;;;;4.52;78.56;99216.19;5034152;28;20510;-64
2022/02/24 06:58:38;;;;;;;21.92;14.65;;;;;;;4.93;78.38;99261.84;5049732;28;20412;-64
2022/02/24 07:01:03;;;;;;;21.33;13.93;;;;;;;4.79;79.45;99252.34;5034819;28;20079;-63
2022/02/24 07:03:29;;;;;;;19.83;13.70;;;;;;;4.86;79.59;99257.97;5034345;28;20025;-64
2022/02/24 07:05:55;;;;;;;19.27;13.30;;;;;;;4.55;79.94;99213.44;5040195;28;20036;-63
2022/02/24 07:08:20;;;;;;;18.52;13.75;;;;;;;4.91;79.50;99250.75;5029488;28;20048;-63
2022/02/24 07:10:46;;;;;;;18.00;12.63;;;;;;;5.00;79.68;99266.50;5038638;28;20096;-64
2022/02/24 07:13:11;;;;;;;19.67;12.68;;;;;;;4.95;79.57;99265.13;5045295;28;20032;-63
2022/02/24 07:15:37;;;;;;;23.55;13.38;;;;;;;4.94;79.10;99261.72;5038653;28;20064;-63
2022/02/24 07:18:02;;;;;;;17.80;13.10;;;;;;;4.92;77.82;99252.44;5026454;28;20029;-63
2022/02/24 07:20:28;;;;;;;21.35;13.95;;;;;;;5.05;76.50;99267.97;5042461;28;20017;-63
2022/02/24 07:22:53;;;;;;;17.17;12.27;;;;;;;5.03;76.10;99259.50;5015711;28;20116;-63
2022/02/24 07:25:19;;;;;;;22.77;14.27;;;;;;;5.03;75.90;99256.94;5034482;28;20025;-63
2022/02/24 07:27:45;;;;;;;17.95;13.00;;;;;;;4.97;76.21;99263.28;5043468;28;20029;-64
2022/02/24 07:30:12;;;;;;;19.67;12.30;;;;;;;4.78;76.55;99218.03;5043271;28;20025;-64
2022/02/24 07:32:38;;;;;;;22.92;12.45;;;;;;;5.19;75.63;99271.38;5042653;28;20103;-63
2022/02/24 07:35:04;;;;;;;18.23;12.43;;;;;;;4.98;75.60;99226.28;5035223;28;20366;-63
2022/02/24 07:37:29;;;;;;;17.45;12.43;;;;;;;5.35;75.42;99268.66;5037656;28;20032;-63
2022/02/24 07:39:54;;;;;;;19.38;12.50;;;;;;;5.17;77.26;99259.50;5027696;28;20405;-63
2022/02/24 07:42:20;;;;;;;17.20;12.30;;;;;;;5.28;77.24;99276.88;5032863;28;20026;-63
2022/02/24 07:44:46;;;;;;;19.52;12.32;;;;;;;5.35;76.81;99267.84;5041612;28;20029;-63
2022/02/24 07:47:13;;;;;;;21.60;12.80;;;;;;;5.39;77.06;99275.28;5042444;28;20071;-62
2022/02/24 07:49:38;;;;;;;16.25;12.07;;;;;;;5.41;76.04;99270.03;5025477;28;20029;-63
2022/02/24 07:52:06;;;;;;;19.17;12.88;;;;;;;5.58;76.35;99271.56;5024438;28;20021;-62
2022/02/24 07:54:32;;;;;;;18.05;12.90;;;;;;;5.59;76.18;99263.72;5025615;28;20110;-63
2022/02/24 07:56:57;;;;;;;18.48;12.50;;;;;;;5.49;75.42;99238.59;5062620;28;20025;-63
2022/02/24 07:59:23;;;;;;;17.13;11.93;;;;;;;5.59;75.27;99262.91;5043862;28;20013;-63
2022/02/24 08:01:48;;;;;;;18.58;12.95;;;;;;;5.55;75.81;99262.25;5045835;28;20025;-63
2022/02/24 08:04:15;;;;;;;17.23;12.20;;;;;;;5.43;74.79;99251.91;5045599;28;20265;-62
2022/02/24 08:06:41;;;;;;;21.92;12.90;;;;;;;5.59;73.53;99271.47;5056812;28;20253;-63
2022/02/24 08:09:07;;;;;;;18.40;12.55;;;;;;;5.27;73.36;99221.88;5040920;28;20029;-62
2022/02/24 08:11:33;;;;;;;18.83;13.30;;;;;;;5.67;74.19;99272.72;5043399;28;20021;-63
2022/02/24 08:13:58;;;;;;;20.42;13.13;;;;;;;5.61;74.45;99271.38;5041883;28;20033;-63
2022/02/24 08:16:23;;;;;;;19.08;12.27;;;;;;;5.61;74.61;99268.78;5028314;28;20730;-63
2022/02/24 08:18:49;;;;;;;18.95;12.60;;;;;;;5.40;74.94;99260.63;5041304;28;20480;-62
2022/02/24 08:21:14;;;;;;;17.10;12.55;;;;;;;5.47;74.94;99263.66;5045830;28;20082;-63
2022/02/24 08:23:40;;;;;;;17.35;12.05;;;;;;;5.43;75.84;99257.88;5045746;28;20020;-63
2022/02/24 08:26:05;;;;;;;18.25;12.55;;;;;;;5.39;76.16;99246.09;5030195;28;20037;-63
2022/02/24 08:28:30;;;;;;;16.40;12.20;;;;;;;5.43;75.80;99257.88;5045186;28;20088;-63
2022/02/24 08:30:56;;;;;;;18.58;12.70;;;;;;;5.41;77.43;99257.16;5046758;28;20021;-62
2022/02/24 08:33:21;;;;;;;17.13;13.23;;;;;;;5.42;77.74;99251.06;5046136;28;20029;-63
2022/02/24 08:35:47;;;;;;;16.60;12.52;;;;;;;5.57;77.45;99254.44;5040134;28;20379;-63
2022/02/24 08:38:12;;;;;;;19.27;13.60;;;;;;;5.73;76.48;99247.38;5046212;28;20029;-62
2022/02/24 08:40:37;;;;;;;18.33;12.85;;;;;;;5.76;76.40;99229.09;5039423;28;20897;-62
2022/02/24 08:43:03;;;;;;;18.60;13.25;;;;;;;5.87;76.69;99240.47;5043444;28;20647;-63
2022/02/24 08:45:29;;;;;;;18.08;13.10;;;;;;;5.94;75.84;99237.41;5039730;28;20052;-62
2022/02/24 08:47:55;;;;;;;17.65;12.07;;;;;;;5.88;74.54;99227.50;5044709;28;20078;-62
2022/02/24 08:50:20;;;;;;;15.82;11.68;;;;;;;5.85;73.53;99219.13;5047150;28;20025;-62
2022/02/24 08:52:46;;;;;;;17.02;12.48;;;;;;;5.99;73.49;99225.97;5043900;28;20021;-62
2022/02/24 08:55:11;;;;;;;16.50;11.60;;;;;;;6.02;70.61;99205.94;5039651;28;20112;-62
2022/02/24 08:57:37;;;;;;;17.35;11.85;;;;;;;6.10;69.17;99208.84;5016576;28;20025;-63
2022/02/24 09:00:08;;;;;;;16.63;11.60;;;;;;;6.10;68.80;99205.47;5045289;28;20521;-63
2022/02/24 09:02:33;;;;;;;17.55;12.15;;;;;;;6.16;68.83;99197.28;5043140;28;20025;-63
2022/02/24 09:04:59;;;;;;;16.30;11.82;;;;;;;6.09;68.55;99189.13;5040574;28;20460;-63
2022/02/24 09:07:24;;;;;;;18.70;11.18;;;;;;;6.25;68.37;99181.19;5038207;28;20116;-62
2022/02/24 09:09:50;;;;;;;16.58;12.07;;;;;;;6.35;67.94;99194.28;5038791;28;20028;-63
2022/02/24 09:12:15;;;;;;;18.15;12.27;;;;;;;6.41;67.48;99186.16;5036655;28;20173;-63
2022/02/24 09:14:41;;;;;;;16.77;11.88;;;;;;;6.45;66.80;99194.53;5043919;28;20021;-63
2022/02/24 09:17:06;;;;;;;16.38;11.40;;;;;;;6.41;65.74;99178.41;5043369;28;20139;-63
2022/02/24 09:19:31;;;;;;;16.85;11.38;;;;;;;6.62;64.86;99186.44;5039338;28;20025;-62
2022/02/24 09:21:57;;;;;;;14.93;10.98;;;;;;;6.70;65.91;99185.91;5042451;28;20036;-63
2022/02/24 09:24:23;;;;;;;15.48;10.70;;;;;;;6.49;63.52;99146.88;5045446;28;20067;-63
2022/02/24 09:26:49;;;;;;;16.35;10.68;;;;;;;6.49;62.33;99134.78;5038601;28;20052;-63
2022/02/24 09:29:14;;;;;;;16.33;11.05;;;;;;;6.89;61.81;99193.22;5015369;28;20206;-63
2022/02/24 09:31:40;;;;;;;18.23;10.52;;;;;;;6.94;60.34;99198.91;5044980;28;20693;-63
2022/02/24 09:34:06;;;;;;;16.65;10.88;;;;;;;6.93;59.25;99187.69;5044801;28;20025;-63
2022/02/24 09:36:32;;;;;;;15.75;10.95;;;;;;;7.03;59.64;99192.25;5042307;28;20607;-62
2022/02/24 09:38:57;;;;;;;16.20;10.32;;;;;;;7.04;60.22;99186.13;5028887;28;20043;-63
2022/02/24 09:41:25;;;;;;;16.88;10.57;;;;;;;7.00;59.59;99188.09;5043889;28;20049;-63
2022/02/24 09:43:51;;;;;;;16.63;10.85;;;;;;;7.12;59.93;99192.44;5001197;28;20437;-61
2022/02/24 09:46:17;;;;;;;15.07;10.48;;;;;;;7.19;58.98;99197.16;5032315;28;20051;-62
2022/02/24 09:48:45;;;;;;;16.65;11.23;;;;;;;6.96;59.96;99145.31;5045501;28;20021;-62
2022/02/24 09:51:14;;;;;;;16.60;11.13;;;;;;;7.29;60.06;99188.63;5029164;28;20035;-63
2022/02/24 09:53:40;;;;;;;15.75;10.75;;;;;;;6.99;60.07;99134.75;5037290;28;20033;-62
2022/02/24 09:56:16;;;;;;;15.73;10.38;;;;;;;7.02;59.18;99131.13;5021246;28;20039;-63
2022/02/24 09:58:42;;;;;;;16.48;10.63;;;;;;;7.11;59.79;99171.84;5041628;28;20075;-63
2022/02/24 10:01:08;;;;;;;18.27;11.55;;;;;;;7.03;58.56;99184.50;4985838;28;20418;-62
2022/02/24 10:03:40;;;;;;;17.85;10.68;;;;;;;7.12;59.29;99187.25;5040036;28;20017;-62
2022/02/24 10:06:07;;;;;;;15.38;9.80;;;;;;;7.15;58.87;99181.03;5038073;28;20045;-62
2022/02/24 10:08:35;;;;;;;16.08;10.88;;;;;;;7.06;59.05;99166.16;5038563;28;20032;-63
2022/02/24 10:11:02;;;;;;;14.80;10.35;;;;;;;7.17;58.66;99168.00;5027269;28;20029;-63
2022/02/24 10:13:28;;;;;;;15.65;10.88;;;;;;;7.28;58.55;99162.88;5036593;28;20017;-63
2022/02/24 10:15:57;;;;;;;18.23;10.55;;;;;;;7.36;58.79;99164.94;5021331;28;20033;-62
2022/02/24 10:18:24;;;;;;;17.25;11.50;;;;;;;7.40;58.53;99141.28;4981368;28;20036;-63
2022/02/24 10:21:04;;;;;;;17.40;11.77;;;;;;;7.33;58.30;99101.28;5045103;28;20029;-63
2022/02/24 10:23:37;;;;;;;16.45;10.75;;;;;;;7.80;58.05;99146.13;5044836;28;20020;-63
2022/02/24 10:26:09;;;;;;;17.63;10.75;;;;;;;7.97;57.63;99149.22;5036330;28;20028;-63
2022/02/24 10:28:40;;;;;;;15.57;11.10;;;;;;;8.03;56.50;99136.66;5044605;28;20543;-63
2022/02/24 10:31:33;;;;;;;19.60;11.10;;;;;;;8.15;56.11;99141.84;5036328;28;20044;-63
2022/02/24 10:33:59;;;;;;;15.60;11.38;;;;;;;8.11;56.93;99138.66;5033787;28;20056;-63
2022/02/24 10:36:25;;;;;;;15.80;10.52;;;;;;;8.11;55.80;99130.06;5042469;28;20022;-63
2022/02/24 10:39:01;;;;;;;15.13;10.35;;;;;;;8.05;54.95;99121.00;5039017;28;20029;-62
2022/02/24 10:41:32;;;;;;;15.60;11.38;;;;;;;8.12;56.98;99124.75;5031584;28;20020;-62
2022/02/24 10:44:22;;;;;;;17.92;11.50;;;;;;;8.28;56.29;99120.06;5043438;28;20097;-62
2022/02/24 10:47:10;;;;;;;17.23;11.65;;;;;;;8.33;57.54;99113.72;5035787;28;20479;-62
2022/02/24 10:49:41;;;;;;;16.88;11.18;;;;;;;8.33;57.92;99091.22;5019133;28;20029;-62
2022/02/24 10:52:20;;;;;;;18.13;11.15;;;;;;;8.47;55.83;99103.16;5035604;28;20022;-62
2022/02/24 10:54:57;;;;;;;18.70;11.98;;;;;;;8.49;56.59;99098.66;5012375;28;20534;-62
2022/02/24 10:57:25;;;;;;;22.33;12.48;;;;;;;8.28;57.20;99064.81;5035344;28;20017;-62
2022/02/24 10:59:55;;;;;;;20.15;12.32;;;;;;;8.30;57.36;99033.63;5024342;28;20111;-62
2022/02/24 11:02:21;;;;;;;21.48;13.27;;;;;;;8.81;55.43;99084.91;5039865;28;20456;-62
2022/02/24 11:04:47;;;;;;;23.05;14.50;;;;;;;9.08;52.81;99083.69;5043203;28;20035;-62
2022/02/24 11:07:13;;;;;;;20.60;14.43;;;;;;;9.20;51.59;99057.56;5037074;28;20022;-62
2022/02/24 11:09:41;;;;;;;21.42;14.45;;;;;;;9.41;51.28;99070.53;5044675;28;20090;-62
2022/02/24 11:12:10;;;;;;;22.23;14.20;;;;;;;9.46;50.65;99056.38;5020284;28;20041;-62
2022/02/24 11:14:37;;;;;;;22.10;14.55;;;;;;;9.64;50.06;99060.03;5040035;28;20104;-62
2022/02/24 11:17:09;;;;;;;21.25;14.57;;;;;;;9.71;49.97;99056.00;5036958;28;20036;-62
2022/02/24 11:19:36;;;;;;;20.33;14.05;;;;;;;9.80;49.96;99052.63;5031959;28;20021;-62